sensor_id;sensor_type;location;lat;lon;timestamp;temperature;humidity
27573;DHT22;15009;53.082;8.768;2022-08-23T00:00:43;22.30;99.90
27573;DHT22;15009;53.082;8.768;2022-08-23T00:03:44;22.30;99.90
27573;DHT22;15009;53.082;8.768;2022-08-23T00:06:46;22.30;99.90
27573;DHT22;15009;53.082;8.768;2022-08-23T00:09:47;22.20;99.90
27573;DHT22;15009;53.082;8.768;2022-08-23T00:12:47;22.20;99.90
27573;DHT22;15009;53.082;8.768;2022-08-23T00:15:48;22.20;99.90
27573;DHT22;15009;53.082;8.768;2022-08-23T00:18:50;22.20;99.90
27573;DHT22;15009;53.082;8.768;2022-08-23T00:21:53;22.20;99.90
27573;DHT22;15009;53.082;8.768;2022-08-23T00:24:54;22.20;99.90
27573;DHT22;15009;53.082;8.768;2022-08-23T00:27:54;22.10;99.90
27573;DHT22;15009;53.082;8.768;2022-08-23T00:30:55;22.10;99.90
27573;DHT22;15009;53.082;8.768;2022-08-23T00:33:57;22.00;99.90
27573;DHT22;15009;53.082;8.768;2022-08-23T00:36:57;22.00;99.90
27573;DHT22;15009;53.082;8.768;2022-08-23T00:39:59;22.00;99.90
27573;DHT22;15009;53.082;8.768;2022-08-23T00:43:05;22.00;99.90
27573;DHT22;15009;53.082;8.768;2022-08-23T00:46:35;21.90;99.90
27573;DHT22;15009;53.082;8.768;2022-08-23T00:53:32;21.90;99.90
27573;DHT22;15009;53.082;8.768;2022-08-23T00:56:33;21.90;99.90
27573;DHT22;15009;53.082;8.768;2022-08-23T00:59:35;21.90;99.90
27573;DHT22;15009;53.082;8.768;2022-08-23T01:02:35;21.80;99.90
27573;DHT22;15009;53.082;8.768;2022-08-23T01:05:50;21.90;99.90
27573;DHT22;15009;53.082;8.768;2022-08-23T01:09:17;21.80;99.90
27573;DHT22;15009;53.082;8.768;2022-08-23T01:12:23;21.70;99.90
27573;DHT22;15009;53.082;8.768;2022-08-23T01:15:36;21.70;99.90
27573;DHT22;15009;53.082;8.768;2022-08-23T01:18:40;21.70;99.90
27573;DHT22;15009;53.082;8.768;2022-08-23T01:21:48;21.70;99.90
27573;DHT22;15009;53.082;8.768;2022-08-23T01:24:51;21.70;99.90
27573;DHT22;15009;53.082;8.768;2022-08-23T01:27:52;21.70;99.90
27573;DHT22;15009;53.082;8.768;2022-08-23T01:30:53;21.60;99.90
27573;DHT22;15009;53.082;8.768;2022-08-23T01:33:58;21.70;99.90
27573;DHT22;15009;53.082;8.768;2022-08-23T01:36:58;21.70;99.90
27573;DHT22;15009;53.082;8.768;2022-08-23T01:40:00;21.50;99.90
27573;DHT22;15009;53.082;8.768;2022-08-23T01:43:02;21.60;99.90
27573;DHT22;15009;53.082;8.768;2022-08-23T01:46:09;21.60;99.90
27573;DHT22;15009;53.082;8.768;2022-08-23T01:49:10;21.60;99.90
27573;DHT22;15009;53.082;8.768;2022-08-23T01:52:11;21.50;99.90
27573;DHT22;15009;53.082;8.768;2022-08-23T01:55:12;21.50;99.90
27573;DHT22;15009;53.082;8.768;2022-08-23T01:58:13;21.50;99.90
27573;DHT22;15009;53.082;8.768;2022-08-23T02:01:14;21.50;99.90
27573;DHT22;15009;53.082;8.768;2022-08-23T02:04:15;21.50;99.90
27573;DHT22;15009;53.082;8.768;2022-08-23T02:07:16;21.50;99.90
27573;DHT22;15009;53.082;8.768;2022-08-23T02:10:17;21.50;99.90
27573;DHT22;15009;53.082;8.768;2022-08-23T02:13:18;21.40;99.90
27573;DHT22;15009;53.082;8.768;2022-08-23T02:16:26;21.40;99.90
27573;DHT22;15009;53.082;8.768;2022-08-23T02:19:26;21.40;99.90
27573;DHT22;15009;53.082;8.768;2022-08-23T02:22:27;21.40;99.90
27573;DHT22;15009;53.082;8.768;2022-08-23T02:25:28;21.40;99.90
27573;DHT22;15009;53.082;8.768;2022-08-23T02:28:28;21.40;99.90
27573;DHT22;15009;53.082;8.768;2022-08-23T02:31:29;21.40;99.90
27573;DHT22;15009;53.082;8.768;2022-08-23T02:34:30;21.40;99.90
27573;DHT22;15009;53.082;8.768;2022-08-23T02:37:32;21.40;99.90
27573;DHT22;15009;53.082;8.768;2022-08-23T02:40:33;21.40;99.90
27573;DHT22;15009;53.082;8.768;2022-08-23T02:43:34;21.40;99.90
27573;DHT22;15009;53.082;8.768;2022-08-23T02:46:37;21.40;99.90
27573;DHT22;15009;53.082;8.768;2022-08-23T02:49:38;21.40;99.90
27573;DHT22;15009;53.082;8.768;2022-08-23T02:52:39;21.40;99.90
27573;DHT22;15009;53.082;8.768;2022-08-23T02:55:39;21.50;99.90
27573;DHT22;15009;53.082;8.768;2022-08-23T02:58:43;21.40;99.90
27573;DHT22;15009;53.082;8.768;2022-08-23T03:01:45;21.40;99.90
27573;DHT22;15009;53.082;8.768;2022-08-23T03:04:45;21.40;99.90
27573;DHT22;15009;53.082;8.768;2022-08-23T03:07:46;21.40;99.90
27573;DHT22;15009;53.082;8.768;2022-08-23T03:10:48;21.30;99.90
27573;DHT22;15009;53.082;8.768;2022-08-23T03:13:51;21.20;99.90
27573;DHT22;15009;53.082;8.768;2022-08-23T03:16:52;21.20;99.90
27573;DHT22;15009;53.082;8.768;2022-08-23T03:19:52;21.30;99.90
27573;DHT22;15009;53.082;8.768;2022-08-23T03:22:53;21.10;99.90
27573;DHT22;15009;53.082;8.768;2022-08-23T03:25:56;21.20;99.90
27573;DHT22;15009;53.082;8.768;2022-08-23T03:28:57;21.20;99.90
27573;DHT22;15009;53.082;8.768;2022-08-23T03:31:58;21.20;99.90
27573;DHT22;15009;53.082;8.768;2022-08-23T03:34:59;21.20;99.90
27573;DHT22;15009;53.082;8.768;2022-08-23T03:38:00;21.10;99.90
27573;DHT22;15009;53.082;8.768;2022-08-23T03:41:00;21.10;99.90
27573;DHT22;15009;53.082;8.768;2022-08-23T03:44:01;21.00;99.90
27573;DHT22;15009;53.082;8.768;2022-08-23T03:47:03;21.00;99.90
27573;DHT22;15009;53.082;8.768;2022-08-23T03:50:05;21.00;99.90
27573;DHT22;15009;53.082;8.768;2022-08-23T03:53:06;21.00;99.90
27573;DHT22;15009;53.082;8.768;2022-08-23T03:56:07;21.00;99.90
27573;DHT22;15009;53.082;8.768;2022-08-23T03:59:09;20.90;99.90
27573;DHT22;15009;53.082;8.768;2022-08-23T04:02:10;20.90;99.90
27573;DHT22;15009;53.082;8.768;2022-08-23T04:05:12;20.90;99.90
27573;DHT22;15009;53.082;8.768;2022-08-23T04:08:12;20.80;99.90
27573;DHT22;15009;53.082;8.768;2022-08-23T04:11:13;20.80;99.90
27573;DHT22;15009;53.082;8.768;2022-08-23T04:14:14;20.70;99.90
27573;DHT22;15009;53.082;8.768;2022-08-23T04:17:15;20.70;99.90
27573;DHT22;15009;53.082;8.768;2022-08-23T04:20:17;20.60;99.90
27573;DHT22;15009;53.082;8.768;2022-08-23T04:23:17;20.60;99.90
27573;DHT22;15009;53.082;8.768;2022-08-23T04:26:18;20.60;99.90
27573;DHT22;15009;53.082;8.768;2022-08-23T04:29:20;20.60;99.90
27573;DHT22;15009;53.082;8.768;2022-08-23T04:32:22;20.50;99.90
27573;DHT22;15009;53.082;8.768;2022-08-23T04:35:23;20.50;99.90
27573;DHT22;15009;53.082;8.768;2022-08-23T04:38:24;20.50;99.90
27573;DHT22;15009;53.082;8.768;2022-08-23T04:41:25;20.60;99.90
27573;DHT22;15009;53.082;8.768;2022-08-23T04:44:44;20.60;99.90
27573;DHT22;15009;53.082;8.768;2022-08-23T04:47:45;20.60;99.90
27573;DHT22;15009;53.082;8.768;2022-08-23T04:50:46;20.70;99.90
27573;DHT22;15009;53.082;8.768;2022-08-23T04:53:47;20.70;99.90
27573;DHT22;15009;53.082;8.768;2022-08-23T04:56:47;20.70;99.90
27573;DHT22;15009;53.082;8.768;2022-08-23T04:59:48;20.70;99.90
27573;DHT22;15009;53.082;8.768;2022-08-23T05:02:49;20.60;99.90
27573;DHT22;15009;53.082;8.768;2022-08-23T05:05:51;20.70;99.90
27573;DHT22;15009;53.082;8.768;2022-08-23T05:08:52;20.80;99.90
27573;DHT22;15009;53.082;8.768;2022-08-23T05:11:53;20.80;99.90
27573;DHT22;15009;53.082;8.768;2022-08-23T05:14:53;21.00;99.90
27573;DHT22;15009;53.082;8.768;2022-08-23T05:17:54;21.10;99.90
27573;DHT22;15009;53.082;8.768;2022-08-23T05:20:54;21.10;99.90
27573;DHT22;15009;53.082;8.768;2022-08-23T05:23:55;21.20;99.90
27573;DHT22;15009;53.082;8.768;2022-08-23T05:26:56;21.20;99.90
27573;DHT22;15009;53.082;8.768;2022-08-23T05:29:56;21.20;99.90
27573;DHT22;15009;53.082;8.768;2022-08-23T05:32:57;21.20;99.90
27573;DHT22;15009;53.082;8.768;2022-08-23T05:36:00;21.20;99.90
27573;DHT22;15009;53.082;8.768;2022-08-23T05:39:01;21.30;99.90
27573;DHT22;15009;53.082;8.768;2022-08-23T05:42:02;21.50;99.90
27573;DHT22;15009;53.082;8.768;2022-08-23T05:45:06;21.70;99.90
27573;DHT22;15009;53.082;8.768;2022-08-23T05:48:07;21.80;99.90
27573;DHT22;15009;53.082;8.768;2022-08-23T05:51:16;22.00;99.90
27573;DHT22;15009;53.082;8.768;2022-08-23T05:54:17;22.00;99.90
27573;DHT22;15009;53.082;8.768;2022-08-23T05:57:18;22.10;99.90
27573;DHT22;15009;53.082;8.768;2022-08-23T06:00:18;22.20;99.90
27573;DHT22;15009;53.082;8.768;2022-08-23T06:03:19;22.50;99.90
27573;DHT22;15009;53.082;8.768;2022-08-23T06:06:20;22.80;99.90
27573;DHT22;15009;53.082;8.768;2022-08-23T06:09:20;22.80;99.90
27573;DHT22;15009;53.082;8.768;2022-08-23T06:12:21;23.00;99.90
27573;DHT22;15009;53.082;8.768;2022-08-23T06:15:22;23.20;99.90
27573;DHT22;15009;53.082;8.768;2022-08-23T06:18:23;23.10;99.90
27573;DHT22;15009;53.082;8.768;2022-08-23T06:21:24;23.20;99.90
27573;DHT22;15009;53.082;8.768;2022-08-23T06:24:25;23.30;99.90
27573;DHT22;15009;53.082;8.768;2022-08-23T06:27:26;23.30;99.90
27573;DHT22;15009;53.082;8.768;2022-08-23T06:30:27;23.20;99.90
27573;DHT22;15009;53.082;8.768;2022-08-23T06:33:28;22.90;99.90
27573;DHT22;15009;53.082;8.768;2022-08-23T06:36:29;22.90;99.90
27573;DHT22;15009;53.082;8.768;2022-08-23T06:39:31;22.90;99.90
27573;DHT22;15009;53.082;8.768;2022-08-23T06:42:32;23.00;99.90
27573;DHT22;15009;53.082;8.768;2022-08-23T06:45:32;23.60;99.90
27573;DHT22;15009;53.082;8.768;2022-08-23T06:48:33;25.00;99.90
27573;DHT22;15009;53.082;8.768;2022-08-23T06:51:37;26.40;99.90
27573;DHT22;15009;53.082;8.768;2022-08-23T06:54:38;26.10;98.90
27573;DHT22;15009;53.082;8.768;2022-08-23T06:57:39;26.10;98.80
27573;DHT22;15009;53.082;8.768;2022-08-23T07:00:40;28.40;94.30
27573;DHT22;15009;53.082;8.768;2022-08-23T07:03:41;28.90;91.10
27573;DHT22;15009;53.082;8.768;2022-08-23T07:06:42;29.80;89.10
27573;DHT22;15009;53.082;8.768;2022-08-23T07:09:42;30.30;83.00
27573;DHT22;15009;53.082;8.768;2022-08-23T07:12:43;30.60;81.50
27573;DHT22;15009;53.082;8.768;2022-08-23T07:15:44;29.60;80.20
27573;DHT22;15009;53.082;8.768;2022-08-23T07:18:45;27.90;84.90
27573;DHT22;15009;53.082;8.768;2022-08-23T07:21:47;26.70;88.70
27573;DHT22;15009;53.082;8.768;2022-08-23T07:24:48;26.00;90.70
27573;DHT22;15009;53.082;8.768;2022-08-23T07:27:48;25.50;92.00
27573;DHT22;15009;53.082;8.768;2022-08-23T07:30:49;25.50;92.50
27573;DHT22;15009;53.082;8.768;2022-08-23T07:33:50;25.70;92.60
27573;DHT22;15009;53.082;8.768;2022-08-23T07:36:52;25.60;93.00
27573;DHT22;15009;53.082;8.768;2022-08-23T07:39:52;25.80;92.10
27573;DHT22;15009;53.082;8.768;2022-08-23T07:42:56;26.40;91.90
27573;DHT22;15009;53.082;8.768;2022-08-23T07:45:56;27.00;90.40
27573;DHT22;15009;53.082;8.768;2022-08-23T07:48:59;27.20;90.20
27573;DHT22;15009;53.082;8.768;2022-08-23T07:52:00;28.00;86.10
27573;DHT22;15009;53.082;8.768;2022-08-23T07:55:01;28.80;85.80
27573;DHT22;15009;53.082;8.768;2022-08-23T07:58:01;29.00;83.70
27573;DHT22;15009;53.082;8.768;2022-08-23T08:01:20;29.30;82.30
27573;DHT22;15009;53.082;8.768;2022-08-23T08:04:21;29.70;79.80
27573;DHT22;15009;53.082;8.768;2022-08-23T08:07:22;29.40;79.90
27573;DHT22;15009;53.082;8.768;2022-08-23T08:10:23;29.10;81.20
27573;DHT22;15009;53.082;8.768;2022-08-23T08:13:24;30.20;79.50
27573;DHT22;15009;53.082;8.768;2022-08-23T08:16:27;32.10;73.90
27573;DHT22;15009;53.082;8.768;2022-08-23T08:19:28;33.20;70.00
27573;DHT22;15009;53.082;8.768;2022-08-23T08:22:29;33.80;66.40
27573;DHT22;15009;53.082;8.768;2022-08-23T08:25:30;34.20;65.60
27573;DHT22;15009;53.082;8.768;2022-08-23T08:28:34;34.00;66.50
27573;DHT22;15009;53.082;8.768;2022-08-23T08:31:35;34.70;63.70
27573;DHT22;15009;53.082;8.768;2022-08-23T08:34:37;36.00;60.40
27573;DHT22;15009;53.082;8.768;2022-08-23T08:37:38;36.70;58.70
27573;DHT22;15009;53.082;8.768;2022-08-23T08:40:39;35.90;58.80
27573;DHT22;15009;53.082;8.768;2022-08-23T08:44:03;36.40;58.10
27573;DHT22;15009;53.082;8.768;2022-08-23T08:47:57;37.10;55.90
27573;DHT22;15009;53.082;8.768;2022-08-23T08:53:44;35.90;56.70
27573;DHT22;15009;53.082;8.768;2022-08-23T08:56:50;36.20;55.90
27573;DHT22;15009;53.082;8.768;2022-08-23T09:00:03;36.40;56.00
27573;DHT22;15009;53.082;8.768;2022-08-23T09:03:09;36.50;55.40
27573;DHT22;15009;53.082;8.768;2022-08-23T09:13:37;34.30;57.90
27573;DHT22;15009;53.082;8.768;2022-08-23T09:16:53;33.00;59.50
27573;DHT22;15009;53.082;8.768;2022-08-23T09:19:58;32.60;59.50
27573;DHT22;15009;53.082;8.768;2022-08-23T09:23:25;32.10;61.50
27573;DHT22;15009;53.082;8.768;2022-08-23T09:26:29;31.60;62.20
27573;DHT22;15009;53.082;8.768;2022-08-23T09:29:33;30.60;63.80
27573;DHT22;15009;53.082;8.768;2022-08-23T09:32:36;30.40;65.10
27573;DHT22;15009;53.082;8.768;2022-08-23T09:35:37;30.50;64.00
27573;DHT22;15009;53.082;8.768;2022-08-23T09:38:38;30.40;63.90
27573;DHT22;15009;53.082;8.768;2022-08-23T09:41:49;30.00;63.60
27573;DHT22;15009;53.082;8.768;2022-08-23T09:44:50;30.20;64.50
27573;DHT22;15009;53.082;8.768;2022-08-23T09:47:51;30.70;63.00
27573;DHT22;15009;53.082;8.768;2022-08-23T09:50:53;30.80;62.00
27573;DHT22;15009;53.082;8.768;2022-08-23T09:54:10;30.50;62.50
27573;DHT22;15009;53.082;8.768;2022-08-23T09:57:11;30.70;63.40
27573;DHT22;15009;53.082;8.768;2022-08-23T10:00:18;30.40;63.40
27573;DHT22;15009;53.082;8.768;2022-08-23T10:03:27;30.30;63.70
27573;DHT22;15009;53.082;8.768;2022-08-23T10:06:30;30.50;63.20
27573;DHT22;15009;53.082;8.768;2022-08-23T10:09:33;30.40;62.30
27573;DHT22;15009;53.082;8.768;2022-08-23T10:12:33;30.20;63.30
27573;DHT22;15009;53.082;8.768;2022-08-23T10:15:48;30.00;64.10
27573;DHT22;15009;53.082;8.768;2022-08-23T10:19:07;30.30;64.40
27573;DHT22;15009;53.082;8.768;2022-08-23T10:22:23;30.30;63.30
27573;DHT22;15009;53.082;8.768;2022-08-23T10:28:46;30.00;64.80
27573;DHT22;15009;53.082;8.768;2022-08-23T10:32:28;30.30;63.60
27573;DHT22;15009;53.082;8.768;2022-08-23T10:38:57;29.90;63.20
27573;DHT22;15009;53.082;8.768;2022-08-23T10:45:32;30.00;61.70
27573;DHT22;15009;53.082;8.768;2022-08-23T10:48:53;30.10;61.30
27573;DHT22;15009;53.082;8.768;2022-08-23T10:51:55;29.90;62.30
27573;DHT22;15009;53.082;8.768;2022-08-23T10:54:59;29.60;62.60
27573;DHT22;15009;53.082;8.768;2022-08-23T10:58:03;29.50;61.90
27573;DHT22;15009;53.082;8.768;2022-08-23T11:01:05;29.90;61.40
27573;DHT22;15009;53.082;8.768;2022-08-23T11:04:32;29.60;60.80
27573;DHT22;15009;53.082;8.768;2022-08-23T11:07:36;29.60;60.60
27573;DHT22;15009;53.082;8.768;2022-08-23T11:10:45;29.90;60.40
27573;DHT22;15009;53.082;8.768;2022-08-23T11:13:52;30.00;60.10
27573;DHT22;15009;53.082;8.768;2022-08-23T11:17:01;29.90;60.10
27573;DHT22;15009;53.082;8.768;2022-08-23T11:20:08;29.90;60.60
27573;DHT22;15009;53.082;8.768;2022-08-23T11:23:12;29.60;59.70
27573;DHT22;15009;53.082;8.768;2022-08-23T11:32:32;29.70;59.70
27573;DHT22;15009;53.082;8.768;2022-08-23T11:39:10;29.60;59.30
27573;DHT22;15009;53.082;8.768;2022-08-23T11:42:17;29.60;60.50
27573;DHT22;15009;53.082;8.768;2022-08-23T11:45:27;29.70;59.30
27573;DHT22;15009;53.082;8.768;2022-08-23T11:48:37;29.50;59.50
27573;DHT22;15009;53.082;8.768;2022-08-23T11:55:26;29.60;58.70
27573;DHT22;15009;53.082;8.768;2022-08-23T12:08:45;29.60;58.30
27573;DHT22;15009;53.082;8.768;2022-08-23T12:14:59;29.40;58.50
27573;DHT22;15009;53.082;8.768;2022-08-23T12:18:10;29.50;58.00
27573;DHT22;15009;53.082;8.768;2022-08-23T12:24:57;29.40;58.20
27573;DHT22;15009;53.082;8.768;2022-08-23T12:31:30;29.60;58.30
27573;DHT22;15009;53.082;8.768;2022-08-23T12:38:07;29.50;58.50
27573;DHT22;15009;53.082;8.768;2022-08-23T12:41:26;29.70;58.10
27573;DHT22;15009;53.082;8.768;2022-08-23T12:44:29;29.60;57.60
27573;DHT22;15009;53.082;8.768;2022-08-23T12:47:30;29.50;57.60
27573;DHT22;15009;53.082;8.768;2022-08-23T12:50:36;29.50;58.00
27573;DHT22;15009;53.082;8.768;2022-08-23T12:53:43;29.50;58.20
27573;DHT22;15009;53.082;8.768;2022-08-23T12:56:47;29.50;58.20
27573;DHT22;15009;53.082;8.768;2022-08-23T13:03:19;29.60;58.70
27573;DHT22;15009;53.082;8.768;2022-08-23T13:06:24;29.50;58.40
27573;DHT22;15009;53.082;8.768;2022-08-23T13:09:29;29.50;58.10
27573;DHT22;15009;53.082;8.768;2022-08-23T13:12:31;29.50;58.00
27573;DHT22;15009;53.082;8.768;2022-08-23T13:15:53;29.60;58.20
27573;DHT22;15009;53.082;8.768;2022-08-23T13:19:09;29.60;58.10
27573;DHT22;15009;53.082;8.768;2022-08-23T13:25:28;29.60;58.30
27573;DHT22;15009;53.082;8.768;2022-08-23T13:28:29;29.60;59.10
27573;DHT22;15009;53.082;8.768;2022-08-23T13:34:49;29.50;58.30
27573;DHT22;15009;53.082;8.768;2022-08-23T13:37:55;29.50;58.50
27573;DHT22;15009;53.082;8.768;2022-08-23T13:41:22;29.50;58.50
27573;DHT22;15009;53.082;8.768;2022-08-23T13:44:23;29.50;58.30
27573;DHT22;15009;53.082;8.768;2022-08-23T13:47:27;29.40;58.90
27573;DHT22;15009;53.082;8.768;2022-08-23T13:50:31;29.30;58.90
27573;DHT22;15009;53.082;8.768;2022-08-23T13:53:31;29.40;59.10
27573;DHT22;15009;53.082;8.768;2022-08-23T13:57:12;29.40;58.80
27573;DHT22;15009;53.082;8.768;2022-08-23T14:00:13;29.50;59.20
27573;DHT22;15009;53.082;8.768;2022-08-23T14:03:14;29.50;58.80
27573;DHT22;15009;53.082;8.768;2022-08-23T14:06:14;29.40;58.50
27573;DHT22;15009;53.082;8.768;2022-08-23T14:09:15;29.40;58.90
27573;DHT22;15009;53.082;8.768;2022-08-23T14:12:21;29.40;59.30
27573;DHT22;15009;53.082;8.768;2022-08-23T14:15:21;29.50;59.20
27573;DHT22;15009;53.082;8.768;2022-08-23T14:18:22;29.50;58.80
27573;DHT22;15009;53.082;8.768;2022-08-23T14:21:22;29.50;58.90
27573;DHT22;15009;53.082;8.768;2022-08-23T14:24:23;29.50;58.80
27573;DHT22;15009;53.082;8.768;2022-08-23T14:27:24;29.50;58.60
27573;DHT22;15009;53.082;8.768;2022-08-23T14:30:30;29.40;58.40
27573;DHT22;15009;53.082;8.768;2022-08-23T14:33:31;29.40;58.90
27573;DHT22;15009;53.082;8.768;2022-08-23T14:36:32;29.40;59.10
27573;DHT22;15009;53.082;8.768;2022-08-23T14:39:33;29.50;58.90
27573;DHT22;15009;53.082;8.768;2022-08-23T14:42:33;29.50;58.60
27573;DHT22;15009;53.082;8.768;2022-08-23T14:45:34;29.40;58.60
27573;DHT22;15009;53.082;8.768;2022-08-23T14:48:35;29.40;58.90
27573;DHT22;15009;53.082;8.768;2022-08-23T14:51:40;29.40;58.90
27573;DHT22;15009;53.082;8.768;2022-08-23T14:54:42;29.40;58.70
27573;DHT22;15009;53.082;8.768;2022-08-23T14:57:42;29.40;59.20
27573;DHT22;15009;53.082;8.768;2022-08-23T15:00:43;29.40;58.80
27573;DHT22;15009;53.082;8.768;2022-08-23T15:03:44;29.40;59.20
27573;DHT22;15009;53.082;8.768;2022-08-23T15:06:45;29.30;59.20
27573;DHT22;15009;53.082;8.768;2022-08-23T15:09:51;29.00;60.10
27573;DHT22;15009;53.082;8.768;2022-08-23T15:12:53;29.00;59.50
27573;DHT22;15009;53.082;8.768;2022-08-23T15:15:54;28.90;59.60
27573;DHT22;15009;53.082;8.768;2022-08-23T15:18:55;28.80;59.70
27573;DHT22;15009;53.082;8.768;2022-08-23T15:21:57;28.80;59.80
27573;DHT22;15009;53.082;8.768;2022-08-23T15:24:58;28.80;59.80
27573;DHT22;15009;53.082;8.768;2022-08-23T15:27:59;28.90;60.00
27573;DHT22;15009;53.082;8.768;2022-08-23T15:31:01;29.00;59.10
27573;DHT22;15009;53.082;8.768;2022-08-23T15:34:02;29.10;59.50
27573;DHT22;15009;53.082;8.768;2022-08-23T15:37:03;29.20;59.40
27573;DHT22;15009;53.082;8.768;2022-08-23T15:40:05;29.20;59.20
27573;DHT22;15009;53.082;8.768;2022-08-23T15:43:06;29.10;59.50
27573;DHT22;15009;53.082;8.768;2022-08-23T15:46:09;29.10;59.70
27573;DHT22;15009;53.082;8.768;2022-08-23T15:49:13;29.20;59.30
27573;DHT22;15009;53.082;8.768;2022-08-23T15:52:15;29.20;59.10
27573;DHT22;15009;53.082;8.768;2022-08-23T15:55:16;29.20;59.20
27573;DHT22;15009;53.082;8.768;2022-08-23T15:58:21;29.10;59.20
27573;DHT22;15009;53.082;8.768;2022-08-23T16:01:22;29.00;59.30
27573;DHT22;15009;53.082;8.768;2022-08-23T16:04:24;29.00;59.50
27573;DHT22;15009;53.082;8.768;2022-08-23T16:07:25;29.10;59.10
27573;DHT22;15009;53.082;8.768;2022-08-23T16:10:26;29.10;58.90
27573;DHT22;15009;53.082;8.768;2022-08-23T16:13:26;29.10;59.00
27573;DHT22;15009;53.082;8.768;2022-08-23T16:16:30;29.00;59.20
27573;DHT22;15009;53.082;8.768;2022-08-23T16:19:33;28.90;59.10
27573;DHT22;15009;53.082;8.768;2022-08-23T16:22:33;28.90;59.60
27573;DHT22;15009;53.082;8.768;2022-08-23T16:25:34;28.70;60.20
27573;DHT22;15009;53.082;8.768;2022-08-23T16:28:35;28.60;60.10
27573;DHT22;15009;53.082;8.768;2022-08-23T16:31:35;28.50;61.30
27573;DHT22;15009;53.082;8.768;2022-08-23T16:34:39;28.50;61.00
27573;DHT22;15009;53.082;8.768;2022-08-23T16:37:39;28.30;62.00
27573;DHT22;15009;53.082;8.768;2022-08-23T16:40:40;28.40;60.50
27573;DHT22;15009;53.082;8.768;2022-08-23T16:43:40;28.40;60.30
27573;DHT22;15009;53.082;8.768;2022-08-23T16:46:41;28.40;60.90
27573;DHT22;15009;53.082;8.768;2022-08-23T16:49:43;28.50;60.70
27573;DHT22;15009;53.082;8.768;2022-08-23T16:52:43;28.50;61.70
27573;DHT22;15009;53.082;8.768;2022-08-23T16:55:44;28.40;61.80
27573;DHT22;15009;53.082;8.768;2022-08-23T16:58:44;28.40;60.80
27573;DHT22;15009;53.082;8.768;2022-08-23T17:01:52;28.40;62.40
27573;DHT22;15009;53.082;8.768;2022-08-23T17:04:55;28.30;61.90
27573;DHT22;15009;53.082;8.768;2022-08-23T17:07:55;28.20;63.10
27573;DHT22;15009;53.082;8.768;2022-08-23T17:10:56;28.10;63.40
27573;DHT22;15009;53.082;8.768;2022-08-23T17:13:57;27.90;63.90
27573;DHT22;15009;53.082;8.768;2022-08-23T17:16:58;27.80;64.20
27573;DHT22;15009;53.082;8.768;2022-08-23T17:19:59;28.00;63.70
27573;DHT22;15009;53.082;8.768;2022-08-23T17:23:01;28.00;63.60
27573;DHT22;15009;53.082;8.768;2022-08-23T17:26:02;28.00;63.90
27573;DHT22;15009;53.082;8.768;2022-08-23T17:29:03;28.00;63.70
27573;DHT22;15009;53.082;8.768;2022-08-23T17:32:04;28.00;63.40
27573;DHT22;15009;53.082;8.768;2022-08-23T17:35:06;27.90;63.60
27573;DHT22;15009;53.082;8.768;2022-08-23T17:38:07;27.90;64.50
27573;DHT22;15009;53.082;8.768;2022-08-23T17:41:08;27.70;64.70
27573;DHT22;15009;53.082;8.768;2022-08-23T17:44:09;27.60;64.80
27573;DHT22;15009;53.082;8.768;2022-08-23T17:47:13;27.70;65.10
27573;DHT22;15009;53.082;8.768;2022-08-23T17:50:18;27.60;65.80
27573;DHT22;15009;53.082;8.768;2022-08-23T17:53:19;27.50;65.90
27573;DHT22;15009;53.082;8.768;2022-08-23T17:56:19;27.50;66.20
27573;DHT22;15009;53.082;8.768;2022-08-23T17:59:20;27.40;66.50
27573;DHT22;15009;53.082;8.768;2022-08-23T18:02:21;27.40;65.30
27573;DHT22;15009;53.082;8.768;2022-08-23T18:05:21;27.30;66.90
27573;DHT22;15009;53.082;8.768;2022-08-23T18:08:22;27.20;66.70
27573;DHT22;15009;53.082;8.768;2022-08-23T18:11:23;27.10;67.30
27573;DHT22;15009;53.082;8.768;2022-08-23T18:14:24;27.00;66.80
27573;DHT22;15009;53.082;8.768;2022-08-23T18:17:27;26.90;66.90
27573;DHT22;15009;53.082;8.768;2022-08-23T18:20:28;26.90;66.90
27573;DHT22;15009;53.082;8.768;2022-08-23T18:23:28;26.90;67.50
27573;DHT22;15009;53.082;8.768;2022-08-23T18:26:29;26.90;67.10
27573;DHT22;15009;53.082;8.768;2022-08-23T18:29:48;26.80;67.60
27573;DHT22;15009;53.082;8.768;2022-08-23T18:32:49;26.60;67.90
27573;DHT22;15009;53.082;8.768;2022-08-23T18:35:50;26.60;67.60
27573;DHT22;15009;53.082;8.768;2022-08-23T18:38:51;26.60;68.30
27573;DHT22;15009;53.082;8.768;2022-08-23T18:41:51;26.50;68.00
27573;DHT22;15009;53.082;8.768;2022-08-23T18:44:53;26.50;67.90
27573;DHT22;15009;53.082;8.768;2022-08-23T18:47:53;26.50;68.00
27573;DHT22;15009;53.082;8.768;2022-08-23T18:50:54;26.40;67.90
27573;DHT22;15009;53.082;8.768;2022-08-23T18:53:55;26.40;68.50
27573;DHT22;15009;53.082;8.768;2022-08-23T18:56:56;26.40;67.90
27573;DHT22;15009;53.082;8.768;2022-08-23T18:59:56;26.40;67.70
27573;DHT22;15009;53.082;8.768;2022-08-23T19:02:57;26.40;68.00
27573;DHT22;15009;53.082;8.768;2022-08-23T19:05:58;26.30;67.60
27573;DHT22;15009;53.082;8.768;2022-08-23T19:08:59;26.20;68.60
27573;DHT22;15009;53.082;8.768;2022-08-23T19:12:00;26.20;68.30
27573;DHT22;15009;53.082;8.768;2022-08-23T19:15:00;26.20;68.10
27573;DHT22;15009;53.082;8.768;2022-08-23T19:18:02;26.10;68.70
27573;DHT22;15009;53.082;8.768;2022-08-23T19:21:03;26.10;68.30
27573;DHT22;15009;53.082;8.768;2022-08-23T19:24:04;26.00;68.20
27573;DHT22;15009;53.082;8.768;2022-08-23T19:27:05;26.00;68.40
27573;DHT22;15009;53.082;8.768;2022-08-23T19:30:08;26.00;68.00
27573;DHT22;15009;53.082;8.768;2022-08-23T19:33:10;25.90;68.00
27573;DHT22;15009;53.082;8.768;2022-08-23T19:36:11;25.90;68.10
27573;DHT22;15009;53.082;8.768;2022-08-23T19:39:12;25.90;68.10
27573;DHT22;15009;53.082;8.768;2022-08-23T19:42:13;25.80;68.50
27573;DHT22;15009;53.082;8.768;2022-08-23T19:45:14;25.80;68.00
27573;DHT22;15009;53.082;8.768;2022-08-23T19:48:16;25.80;68.50
27573;DHT22;15009;53.082;8.768;2022-08-23T19:51:19;25.70;68.30
27573;DHT22;15009;53.082;8.768;2022-08-23T19:54:20;25.70;68.60
27573;DHT22;15009;53.082;8.768;2022-08-23T19:57:21;25.70;68.60
27573;DHT22;15009;53.082;8.768;2022-08-23T20:00:23;25.70;68.70
27573;DHT22;15009;53.082;8.768;2022-08-23T20:03:23;25.70;68.90
27573;DHT22;15009;53.082;8.768;2022-08-23T20:06:26;25.60;68.90
27573;DHT22;15009;53.082;8.768;2022-08-23T20:09:28;25.60;69.30
27573;DHT22;15009;53.082;8.768;2022-08-23T20:12:28;25.60;69.40
27573;DHT22;15009;53.082;8.768;2022-08-23T20:15:29;25.50;69.20
27573;DHT22;15009;53.082;8.768;2022-08-23T20:18:30;25.50;68.90
27573;DHT22;15009;53.082;8.768;2022-08-23T20:21:31;25.40;68.70
27573;DHT22;15009;53.082;8.768;2022-08-23T20:24:32;25.40;69.30
27573;DHT22;15009;53.082;8.768;2022-08-23T20:27:33;25.40;69.20